sensor_id;sensor_type;location;lat;lon;timestamp;temperature;humidity
2523;DHT22;1272;53.332;9.860;2023-05-17T00:01:52;9.70;99.90
2523;DHT22;1272;53.332;9.860;2023-05-17T00:04:19;9.70;99.90
2523;DHT22;1272;53.332;9.860;2023-05-17T00:06:45;9.60;99.90
2523;DHT22;1272;53.332;9.860;2023-05-17T00:09:11;9.60;99.90
2523;DHT22;1272;53.332;9.860;2023-05-17T00:11:36;9.70;99.90
2523;DHT22;1272;53.332;9.860;2023-05-17T00:14:02;9.70;99.90
2523;DHT22;1272;53.332;9.860;2023-05-17T00:16:28;9.60;99.90
2523;DHT22;1272;53.332;9.860;2023-05-17T00:18:53;9.60;1.00
2523;DHT22;1272;53.332;9.860;2023-05-17T00:21:19;9.60;99.90
2523;DHT22;1272;53.332;9.860;2023-05-17T00:23:45;9.70;99.90
2523;DHT22;1272;53.332;9.860;2023-05-17T00:26:10;9.60;65.60
2523;DHT22;1272;53.332;9.860;2023-05-17T00:28:38;9.60;99.90
2523;DHT22;1272;53.332;9.860;2023-05-17T00:31:03;9.60;1.00
2523;DHT22;1272;53.332;9.860;2023-05-17T00:33:29;9.60;1.00
2523;DHT22;1272;53.332;9.860;2023-05-17T00:35:55;9.50;1.00
2523;DHT22;1272;53.332;9.860;2023-05-17T00:38:20;9.50;1.00
2523;DHT22;1272;53.332;9.860;2023-05-17T00:40:46;9.40;1.00
2523;DHT22;1272;53.332;9.860;2023-05-17T00:43:11;9.40;1.00
2523;DHT22;1272;53.332;9.860;2023-05-17T00:45:37;9.30;1.00
2523;DHT22;1272;53.332;9.860;2023-05-17T00:48:03;9.30;1.00
2523;DHT22;1272;53.332;9.860;2023-05-17T00:50:29;9.30;99.90
2523;DHT22;1272;53.332;9.860;2023-05-17T00:52:55;9.30;99.90
2523;DHT22;1272;53.332;9.860;2023-05-17T00:55:21;9.20;99.90
2523;DHT22;1272;53.332;9.860;2023-05-17T00:57:47;9.20;99.90
2523;DHT22;1272;53.332;9.860;2023-05-17T01:00:13;9.10;99.90
2523;DHT22;1272;53.332;9.860;2023-05-17T01:02:39;9.10;99.90
2523;DHT22;1272;53.332;9.860;2023-05-17T01:05:05;9.10;99.90
2523;DHT22;1272;53.332;9.860;2023-05-17T01:07:31;9.10;99.90
2523;DHT22;1272;53.332;9.860;2023-05-17T01:09:57;9.00;99.90
2523;DHT22;1272;53.332;9.860;2023-05-17T01:15:14;9.00;27.80
2523;DHT22;1272;53.332;9.860;2023-05-17T01:18:08;9.00;1.00
2523;DHT22;1272;53.332;9.860;2023-05-17T01:20:39;9.00;1.00
2523;DHT22;1272;53.332;9.860;2023-05-17T01:23:34;9.00;1.00
2523;DHT22;1272;53.332;9.860;2023-05-17T01:26:18;8.90;1.00
2523;DHT22;1272;53.332;9.860;2023-05-17T01:28:51;9.00;1.00
2523;DHT22;1272;53.332;9.860;2023-05-17T01:31:18;8.90;1.00
2523;DHT22;1272;53.332;9.860;2023-05-17T01:33:45;8.90;1.00
2523;DHT22;1272;53.332;9.860;2023-05-17T01:36:11;8.80;1.00
2523;DHT22;1272;53.332;9.860;2023-05-17T01:38:36;8.80;1.00
2523;DHT22;1272;53.332;9.860;2023-05-17T01:41:16;8.80;1.00
2523;DHT22;1272;53.332;9.860;2023-05-17T01:43:51;8.90;53.30
2523;DHT22;1272;53.332;9.860;2023-05-17T01:52:10;8.90;32.80
2523;DHT22;1272;53.332;9.860;2023-05-17T01:54:31;8.80;58.90
2523;DHT22;1272;53.332;9.860;2023-05-17T01:57:03;8.80;73.40
2523;DHT22;1272;53.332;9.860;2023-05-17T01:59:30;8.80;12.20
2523;DHT22;1272;53.332;9.860;2023-05-17T02:01:59;8.80;1.00
2523;DHT22;1272;53.332;9.860;2023-05-17T02:04:33;8.70;1.00
2523;DHT22;1272;53.332;9.860;2023-05-17T02:06:59;8.70;1.00
2523;DHT22;1272;53.332;9.860;2023-05-17T02:09:25;8.70;1.00
2523;DHT22;1272;53.332;9.860;2023-05-17T02:11:51;8.60;1.00
2523;DHT22;1272;53.332;9.860;2023-05-17T02:14:16;8.60;1.00
2523;DHT22;1272;53.332;9.860;2023-05-17T02:16:42;8.60;1.00
2523;DHT22;1272;53.332;9.860;2023-05-17T02:19:08;8.60;1.00
2523;DHT22;1272;53.332;9.860;2023-05-17T02:21:34;8.50;1.00
2523;DHT22;1272;53.332;9.860;2023-05-17T02:24:00;8.50;1.00
2523;DHT22;1272;53.332;9.860;2023-05-17T02:26:26;8.40;1.00
2523;DHT22;1272;53.332;9.860;2023-05-17T02:28:52;8.40;1.00
2523;DHT22;1272;53.332;9.860;2023-05-17T02:31:18;8.30;56.10
2523;DHT22;1272;53.332;9.860;2023-05-17T02:33:43;8.30;22.80
2523;DHT22;1272;53.332;9.860;2023-05-17T02:36:09;8.20;46.10
2523;DHT22;1272;53.332;9.860;2023-05-17T02:38:35;8.20;83.50
2523;DHT22;1272;53.332;9.860;2023-05-17T02:41:01;8.10;99.90
2523;DHT22;1272;53.332;9.860;2023-05-17T02:43:28;8.00;99.90
2523;DHT22;1272;53.332;9.860;2023-05-17T02:45:53;8.00;99.90
2523;DHT22;1272;53.332;9.860;2023-05-17T02:48:19;7.90;99.90
2523;DHT22;1272;53.332;9.860;2023-05-17T02:50:45;7.90;99.90
2523;DHT22;1272;53.332;9.860;2023-05-17T02:53:10;7.80;1.00
2523;DHT22;1272;53.332;9.860;2023-05-17T02:55:36;7.80;1.00
2523;DHT22;1272;53.332;9.860;2023-05-17T02:58:02;7.90;1.00
2523;DHT22;1272;53.332;9.860;2023-05-17T03:00:28;7.80;1.00
2523;DHT22;1272;53.332;9.860;2023-05-17T03:02:54;7.80;1.00
2523;DHT22;1272;53.332;9.860;2023-05-17T03:05:20;7.90;1.00
2523;DHT22;1272;53.332;9.860;2023-05-17T03:07:46;7.90;99.90
2523;DHT22;1272;53.332;9.860;2023-05-17T03:10:11;7.90;99.90
2523;DHT22;1272;53.332;9.860;2023-05-17T03:12:37;7.90;99.90
2523;DHT22;1272;53.332;9.860;2023-05-17T03:15:03;7.90;99.90
2523;DHT22;1272;53.332;9.860;2023-05-17T03:17:28;7.90;99.90
2523;DHT22;1272;53.332;9.860;2023-05-17T03:19:54;7.80;99.90
2523;DHT22;1272;53.332;9.860;2023-05-17T03:22:20;7.80;99.90
2523;DHT22;1272;53.332;9.860;2023-05-17T03:24:46;7.80;99.90
2523;DHT22;1272;53.332;9.860;2023-05-17T03:27:12;7.80;99.90
2523;DHT22;1272;53.332;9.860;2023-05-17T03:29:38;7.80;1.00
2523;DHT22;1272;53.332;9.860;2023-05-17T03:32:03;7.80;1.00
2523;DHT22;1272;53.332;9.860;2023-05-17T03:34:29;7.80;1.00
2523;DHT22;1272;53.332;9.860;2023-05-17T03:36:55;7.80;1.00
2523;DHT22;1272;53.332;9.860;2023-05-17T03:39:20;7.80;99.90
2523;DHT22;1272;53.332;9.860;2023-05-17T03:41:46;7.80;99.90
2523;DHT22;1272;53.332;9.860;2023-05-17T03:44:12;7.80;99.90
2523;DHT22;1272;53.332;9.860;2023-05-17T03:46:38;7.80;99.90
2523;DHT22;1272;53.332;9.860;2023-05-17T03:49:03;7.70;99.90
2523;DHT22;1272;53.332;9.860;2023-05-17T03:51:29;7.70;99.90
2523;DHT22;1272;53.332;9.860;2023-05-17T03:53:59;7.70;99.90
2523;DHT22;1272;53.332;9.860;2023-05-17T03:56:25;7.70;99.90
2523;DHT22;1272;53.332;9.860;2023-05-17T03:58:51;7.70;57.10
2523;DHT22;1272;53.332;9.860;2023-05-17T04:01:16;7.70;1.00
2523;DHT22;1272;53.332;9.860;2023-05-17T04:03:45;7.70;1.00
2523;DHT22;1272;53.332;9.860;2023-05-17T04:06:12;7.70;1.00
2523;DHT22;1272;53.332;9.860;2023-05-17T04:08:38;7.70;1.00
2523;DHT22;1272;53.332;9.860;2023-05-17T04:11:04;7.70;1.00
2523;DHT22;1272;53.332;9.860;2023-05-17T04:13:41;7.80;1.00
2523;DHT22;1272;53.332;9.860;2023-05-17T04:16:08;7.70;1.00
2523;DHT22;1272;53.332;9.860;2023-05-17T04:18:37;7.70;1.00
2523;DHT22;1272;53.332;9.860;2023-05-17T04:21:04;7.70;86.90
2523;DHT22;1272;53.332;9.860;2023-05-17T04:23:31;7.80;99.90
2523;DHT22;1272;53.332;9.860;2023-05-17T04:25:57;7.80;99.90
2523;DHT22;1272;53.332;9.860;2023-05-17T04:28:23;7.80;84.30
2523;DHT22;1272;53.332;9.860;2023-05-17T04:30:49;7.90;1.00
2523;DHT22;1272;53.332;9.860;2023-05-17T04:33:15;7.80;1.00
2523;DHT22;1272;53.332;9.860;2023-05-17T04:35:41;7.80;1.00
2523;DHT22;1272;53.332;9.860;2023-05-17T04:38:07;7.90;1.00
2523;DHT22;1272;53.332;9.860;2023-05-17T04:40:33;8.00;1.00
2523;DHT22;1272;53.332;9.860;2023-05-17T04:43:00;8.10;99.90
2523;DHT22;1272;53.332;9.860;2023-05-17T04:45:26;8.10;99.90
2523;DHT22;1272;53.332;9.860;2023-05-17T04:47:51;8.10;16.50
2523;DHT22;1272;53.332;9.860;2023-05-17T04:50:18;8.20;1.00
2523;DHT22;1272;53.332;9.860;2023-05-17T04:52:45;8.30;1.00
2523;DHT22;1272;53.332;9.860;2023-05-17T04:55:11;8.30;1.00
2523;DHT22;1272;53.332;9.860;2023-05-17T04:57:36;8.40;1.00
2523;DHT22;1272;53.332;9.860;2023-05-17T05:00:03;8.50;1.00
2523;DHT22;1272;53.332;9.860;2023-05-17T05:02:34;8.50;99.90
2523;DHT22;1272;53.332;9.860;2023-05-17T05:05:00;8.50;1.00
2523;DHT22;1272;53.332;9.860;2023-05-17T05:07:26;8.60;99.90
2523;DHT22;1272;53.332;9.860;2023-05-17T05:09:52;8.60;99.90
2523;DHT22;1272;53.332;9.860;2023-05-17T05:12:17;8.70;99.90
2523;DHT22;1272;53.332;9.860;2023-05-17T05:14:43;8.70;99.90
2523;DHT22;1272;53.332;9.860;2023-05-17T05:17:09;8.80;99.90
2523;DHT22;1272;53.332;9.860;2023-05-17T05:19:35;8.90;99.90
2523;DHT22;1272;53.332;9.860;2023-05-17T05:22:00;8.90;99.90
2523;DHT22;1272;53.332;9.860;2023-05-17T05:24:26;8.90;99.90
2523;DHT22;1272;53.332;9.860;2023-05-17T05:26:52;9.00;99.90
2523;DHT22;1272;53.332;9.860;2023-05-17T05:29:18;9.00;99.90
2523;DHT22;1272;53.332;9.860;2023-05-17T05:31:43;9.00;99.90
2523;DHT22;1272;53.332;9.860;2023-05-17T05:34:09;9.00;99.90
2523;DHT22;1272;53.332;9.860;2023-05-17T05:36:35;9.00;99.90
2523;DHT22;1272;53.332;9.860;2023-05-17T05:39:01;9.00;99.90
2523;DHT22;1272;53.332;9.860;2023-05-17T05:41:27;9.10;99.90
2523;DHT22;1272;53.332;9.860;2023-05-17T05:43:53;9.10;99.90
2523;DHT22;1272;53.332;9.860;2023-05-17T05:46:19;9.00;99.90
2523;DHT22;1272;53.332;9.860;2023-05-17T05:48:44;9.00;99.90
2523;DHT22;1272;53.332;9.860;2023-05-17T05:51:10;9.10;99.90
2523;DHT22;1272;53.332;9.860;2023-05-17T05:53:37;9.10;99.90
2523;DHT22;1272;53.332;9.860;2023-05-17T05:56:03;9.20;99.90
2523;DHT22;1272;53.332;9.860;2023-05-17T05:58:30;9.30;99.60
2523;DHT22;1272;53.332;9.860;2023-05-17T06:00:56;9.40;57.90
2523;DHT22;1272;53.332;9.860;2023-05-17T06:03:24;9.50;80.10
2523;DHT22;1272;53.332;9.860;2023-05-17T06:05:50;9.60;81.30
2523;DHT22;1272;53.332;9.860;2023-05-17T06:08:16;9.70;30.60
2523;DHT22;1272;53.332;9.860;2023-05-17T06:10:42;9.70;19.80
2523;DHT22;1272;53.332;9.860;2023-05-17T06:13:07;9.60;61.80
2523;DHT22;1272;53.332;9.860;2023-05-17T06:15:33;9.60;99.90
2523;DHT22;1272;53.332;9.860;2023-05-17T06:17:59;9.50;94.00
2523;DHT22;1272;53.332;9.860;2023-05-17T06:20:25;9.50;90.30
2523;DHT22;1272;53.332;9.860;2023-05-17T06:22:50;9.50;99.90
2523;DHT22;1272;53.332;9.860;2023-05-17T06:25:16;9.50;99.90
2523;DHT22;1272;53.332;9.860;2023-05-17T06:27:42;9.60;1.00
2523;DHT22;1272;53.332;9.860;2023-05-17T06:30:08;9.60;85.30
2523;DHT22;1272;53.332;9.860;2023-05-17T06:32:35;9.60;99.90
2523;DHT22;1272;53.332;9.860;2023-05-17T06:35:01;9.60;99.90
2523;DHT22;1272;53.332;9.860;2023-05-17T06:37:27;9.60;62.50
2523;DHT22;1272;53.332;9.860;2023-05-17T06:40:01;9.60;99.80
2523;DHT22;1272;53.332;9.860;2023-05-17T06:42:29;9.40;99.90
2523;DHT22;1272;53.332;9.860;2023-05-17T06:44:54;9.30;99.90
2523;DHT22;1272;53.332;9.860;2023-05-17T06:47:20;9.40;99.90
2523;DHT22;1272;53.332;9.860;2023-05-17T06:49:46;9.50;99.90
2523;DHT22;1272;53.332;9.860;2023-05-17T06:52:11;9.50;99.90
2523;DHT22;1272;53.332;9.860;2023-05-17T06:54:37;9.60;99.90
2523;DHT22;1272;53.332;9.860;2023-05-17T06:57:03;9.60;99.90
2523;DHT22;1272;53.332;9.860;2023-05-17T06:59:29;9.60;99.90
2523;DHT22;1272;53.332;9.860;2023-05-17T07:01:55;9.60;99.90
2523;DHT22;1272;53.332;9.860;2023-05-17T07:04:21;9.70;99.90
2523;DHT22;1272;53.332;9.860;2023-05-17T07:06:47;9.80;99.90
2523;DHT22;1272;53.332;9.860;2023-05-17T07:09:13;9.80;99.90
2523;DHT22;1272;53.332;9.860;2023-05-17T07:11:39;9.80;60.10
2523;DHT22;1272;53.332;9.860;2023-05-17T07:14:05;9.80;99.40
2523;DHT22;1272;53.332;9.860;2023-05-17T07:16:30;9.90;99.90
2523;DHT22;1272;53.332;9.860;2023-05-17T07:18:56;9.90;1.00
2523;DHT22;1272;53.332;9.860;2023-05-17T07:21:24;10.00;3.30
2523;DHT22;1272;53.332;9.860;2023-05-17T07:23:50;10.10;1.00
2523;DHT22;1272;53.332;9.860;2023-05-17T07:26:19;10.10;1.00
2523;DHT22;1272;53.332;9.860;2023-05-17T07:28:45;10.10;1.00
2523;DHT22;1272;53.332;9.860;2023-05-17T07:31:11;10.10;20.30
2523;DHT22;1272;53.332;9.860;2023-05-17T07:33:37;10.00;37.50
2523;DHT22;1272;53.332;9.860;2023-05-17T07:36:04;9.90;99.10
2523;DHT22;1272;53.332;9.860;2023-05-17T07:38:29;9.80;37.30
2523;DHT22;1272;53.332;9.860;2023-05-17T07:40:55;9.70;53.80
2523;DHT22;1272;53.332;9.860;2023-05-17T07:43:21;9.70;99.90
2523;DHT22;1272;53.332;9.860;2023-05-17T07:45:47;9.80;96.80
2523;DHT22;1272;53.332;9.860;2023-05-17T07:48:12;10.00;79.20
2523;DHT22;1272;53.332;9.860;2023-05-17T07:50:39;10.20;33.80
2523;DHT22;1272;53.332;9.860;2023-05-17T07:53:05;10.30;1.00
2523;DHT22;1272;53.332;9.860;2023-05-17T07:55:31;10.50;1.00
2523;DHT22;1272;53.332;9.860;2023-05-17T07:57:56;10.60;1.00
2523;DHT22;1272;53.332;9.860;2023-05-17T08:00:22;10.80;1.00
2523;DHT22;1272;53.332;9.860;2023-05-17T08:02:49;10.80;1.00
2523;DHT22;1272;53.332;9.860;2023-05-17T08:05:15;10.80;1.00
2523;DHT22;1272;53.332;9.860;2023-05-17T08:07:41;11.00;1.00
2523;DHT22;1272;53.332;9.860;2023-05-17T08:10:07;11.10;1.00
2523;DHT22;1272;53.332;9.860;2023-05-17T08:12:32;11.20;1.00
2523;DHT22;1272;53.332;9.860;2023-05-17T08:14:58;11.30;1.00
2523;DHT22;1272;53.332;9.860;2023-05-17T08:17:24;11.30;1.00
2523;DHT22;1272;53.332;9.860;2023-05-17T08:19:50;11.30;1.00
2523;DHT22;1272;53.332;9.860;2023-05-17T08:22:16;11.40;1.00
2523;DHT22;1272;53.332;9.860;2023-05-17T08:24:41;11.40;1.00
2523;DHT22;1272;53.332;9.860;2023-05-17T08:27:09;11.30;1.00
2523;DHT22;1272;53.332;9.860;2023-05-17T08:29:35;11.20;1.00
2523;DHT22;1272;53.332;9.860;2023-05-17T08:32:02;11.30;1.00
2523;DHT22;1272;53.332;9.860;2023-05-17T08:34:28;11.40;1.00
2523;DHT22;1272;53.332;9.860;2023-05-17T08:36:53;11.30;1.00
2523;DHT22;1272;53.332;9.860;2023-05-17T08:39:19;11.30;1.00
2523;DHT22;1272;53.332;9.860;2023-05-17T08:41:48;11.30;1.00
2523;DHT22;1272;53.332;9.860;2023-05-17T08:44:14;11.40;1.00
2523;DHT22;1272;53.332;9.860;2023-05-17T08:46:43;11.50;1.00
2523;DHT22;1272;53.332;9.860;2023-05-17T08:49:16;11.40;1.00
2523;DHT22;1272;53.332;9.860;2023-05-17T08:51:48;11.40;1.00
2523;DHT22;1272;53.332;9.860;2023-05-17T08:54:15;11.40;1.00
2523;DHT22;1272;53.332;9.860;2023-05-17T08:56:41;11.50;1.00
2523;DHT22;1272;53.332;9.860;2023-05-17T08:59:08;11.60;1.00
2523;DHT22;1272;53.332;9.860;2023-05-17T09:01:39;11.70;1.00
2523;DHT22;1272;53.332;9.860;2023-05-17T09:04:08;11.70;1.00
2523;DHT22;1272;53.332;9.860;2023-05-17T09:06:36;11.70;1.00
2523;DHT22;1272;53.332;9.860;2023-05-17T09:09:04;11.70;1.00
2523;DHT22;1272;53.332;9.860;2023-05-17T09:11:32;11.80;1.00
2523;DHT22;1272;53.332;9.860;2023-05-17T09:14:04;11.90;1.00
2523;DHT22;1272;53.332;9.860;2023-05-17T09:16:31;11.90;1.00
2523;DHT22;1272;53.332;9.860;2023-05-17T09:18:58;12.00;1.00
2523;DHT22;1272;53.332;9.860;2023-05-17T09:21:24;12.10;1.00
2523;DHT22;1272;53.332;9.860;2023-05-17T09:23:51;12.10;1.00
2523;DHT22;1272;53.332;9.860;2023-05-17T09:26:17;12.20;1.00
2523;DHT22;1272;53.332;9.860;2023-05-17T09:28:43;12.20;1.00
2523;DHT22;1272;53.332;9.860;2023-05-17T09:31:09;12.00;1.00
2523;DHT22;1272;53.332;9.860;2023-05-17T09:33:45;12.10;1.00
2523;DHT22;1272;53.332;9.860;2023-05-17T09:36:21;12.20;1.00
2523;DHT22;1272;53.332;9.860;2023-05-17T09:39:01;12.20;1.00
2523;DHT22;1272;53.332;9.860;2023-05-17T09:41:40;12.20;1.00
2523;DHT22;1272;53.332;9.860;2023-05-17T09:44:08;12.20;1.00
2523;DHT22;1272;53.332;9.860;2023-05-17T09:46:34;12.20;1.00
2523;DHT22;1272;53.332;9.860;2023-05-17T09:49:01;12.00;1.00
2523;DHT22;1272;53.332;9.860;2023-05-17T09:51:35;11.90;1.00
2523;DHT22;1272;53.332;9.860;2023-05-17T09:54:01;11.90;1.00
2523;DHT22;1272;53.332;9.860;2023-05-17T09:56:30;12.00;1.00
2523;DHT22;1272;53.332;9.860;2023-05-17T09:58:59;12.00;1.00
2523;DHT22;1272;53.332;9.860;2023-05-17T10:01:26;12.00;1.00
2523;DHT22;1272;53.332;9.860;2023-05-17T10:03:52;11.80;1.00
2523;DHT22;1272;53.332;9.860;2023-05-17T10:06:21;11.80;1.00
2523;DHT22;1272;53.332;9.860;2023-05-17T10:08:52;12.10;1.00
2523;DHT22;1272;53.332;9.860;2023-05-17T10:11:23;12.40;1.00
2523;DHT22;1272;53.332;9.860;2023-05-17T10:16:36;13.00;1.00
2523;DHT22;1272;53.332;9.860;2023-05-17T10:19:03;13.20;1.00
2523;DHT22;1272;53.332;9.860;2023-05-17T10:21:30;13.30;1.00
2523;DHT22;1272;53.332;9.860;2023-05-17T10:24:01;13.30;1.00
2523;DHT22;1272;53.332;9.860;2023-05-17T10:26:28;13.40;1.00
2523;DHT22;1272;53.332;9.860;2023-05-17T10:28:59;13.20;1.00
2523;DHT22;1272;53.332;9.860;2023-05-17T10:31:30;12.80;99.90
2523;DHT22;1272;53.332;9.860;2023-05-17T10:33:59;12.60;1.00
2523;DHT22;1272;53.332;9.860;2023-05-17T10:36:25;12.50;1.00
2523;DHT22;1272;53.332;9.860;2023-05-17T10:38:51;12.40;1.00
2523;DHT22;1272;53.332;9.860;2023-05-17T10:41:19;12.40;1.00
2523;DHT22;1272;53.332;9.860;2023-05-17T10:43:46;12.30;1.00
2523;DHT22;1272;53.332;9.860;2023-05-17T10:46:17;12.40;1.00
2523;DHT22;1272;53.332;9.860;2023-05-17T10:48:56;12.50;1.00
2523;DHT22;1272;53.332;9.860;2023-05-17T10:51:24;12.60;1.00
2523;DHT22;1272;53.332;9.860;2023-05-17T10:54:10;12.70;1.00
2523;DHT22;1272;53.332;9.860;2023-05-17T10:56:54;12.90;1.00
2523;DHT22;1272;53.332;9.860;2023-05-17T10:59:24;13.10;1.00
2523;DHT22;1272;53.332;9.860;2023-05-17T11:01:59;13.40;99.90
2523;DHT22;1272;53.332;9.860;2023-05-17T11:04:40;13.50;1.00
2523;DHT22;1272;53.332;9.860;2023-05-17T11:12:14;13.40;1.00
2523;DHT22;1272;53.332;9.860;2023-05-17T11:14:47;13.20;99.90
2523;DHT22;1272;53.332;9.860;2023-05-17T11:17:18;13.40;1.00
2523;DHT22;1272;53.332;9.860;2023-05-17T11:22:25;14.20;99.90
2523;DHT22;1272;53.332;9.860;2023-05-17T11:24:55;14.30;99.90
2523;DHT22;1272;53.332;9.860;2023-05-17T11:27:21;14.20;99.90
2523;DHT22;1272;53.332;9.860;2023-05-17T11:29:53;14.10;99.90
2523;DHT22;1272;53.332;9.860;2023-05-17T11:32:31;13.90;99.90
2523;DHT22;1272;53.332;9.860;2023-05-17T11:35:00;13.50;99.90
2523;DHT22;1272;53.332;9.860;2023-05-17T11:37:27;13.50;99.90
2523;DHT22;1272;53.332;9.860;2023-05-17T11:40:06;13.70;99.90
2523;DHT22;1272;53.332;9.860;2023-05-17T11:42:35;14.00;99.90
2523;DHT22;1272;53.332;9.860;2023-05-17T11:45:03;14.10;99.90
2523;DHT22;1272;53.332;9.860;2023-05-17T11:47:29;14.10;99.90
2523;DHT22;1272;53.332;9.860;2023-05-17T11:50:00;13.80;99.90
2523;DHT22;1272;53.332;9.860;2023-05-17T11:52:27;13.70;99.90
2523;DHT22;1272;53.332;9.860;2023-05-17T11:54:53;13.70;99.90
2523;DHT22;1272;53.332;9.860;2023-05-17T11:57:19;13.80;99.90
2523;DHT22;1272;53.332;9.860;2023-05-17T11:59:47;14.10;99.90
2523;DHT22;1272;53.332;9.860;2023-05-17T12:02:26;14.60;99.90
2523;DHT22;1272;53.332;9.860;2023-05-17T12:04:52;15.00;99.90
2523;DHT22;1272;53.332;9.860;2023-05-17T12:07:18;15.30;99.90
2523;DHT22;1272;53.332;9.860;2023-05-17T12:09:43;15.40;99.90
2523;DHT22;1272;53.332;9.860;2023-05-17T12:12:10;15.40;99.90
2523;DHT22;1272;53.332;9.860;2023-05-17T12:14:35;15.10;99.90
2523;DHT22;1272;53.332;9.860;2023-05-17T12:17:04;15.00;99.90
2523;DHT22;1272;53.332;9.860;2023-05-17T12:19:32;14.70;99.90
2523;DHT22;1272;53.332;9.860;2023-05-17T12:22:11;14.60;99.90
2523;DHT22;1272;53.332;9.860;2023-05-17T12:24:41;14.50;99.90
2523;DHT22;1272;53.332;9.860;2023-05-17T12:27:07;14.70;99.90
2523;DHT22;1272;53.332;9.860;2023-05-17T12:29:33;15.00;99.90
2523;DHT22;1272;53.332;9.860;2023-05-17T12:32:00;15.30;99.90
2523;DHT22;1272;53.332;9.860;2023-05-17T12:34:27;15.30;99.90
2523;DHT22;1272;53.332;9.860;2023-05-17T12:36:54;15.20;99.90
2523;DHT22;1272;53.332;9.860;2023-05-17T12:39:20;15.40;99.90
2523;DHT22;1272;53.332;9.860;2023-05-17T12:41:49;15.70;99.90
2523;DHT22;1272;53.332;9.860;2023-05-17T12:44:16;15.70;99.90
2523;DHT22;1272;53.332;9.860;2023-05-17T12:46:45;15.20;99.90
2523;DHT22;1272;53.332;9.860;2023-05-17T12:49:18;14.80;99.90
2523;DHT22;1272;53.332;9.860;2023-05-17T12:51:46;14.60;99.90
2523;DHT22;1272;53.332;9.860;2023-05-17T12:54:24;14.80;99.90
2523;DHT22;1272;53.332;9.860;2023-05-17T12:56:51;14.90;99.90
2523;DHT22;1272;53.332;9.860;2023-05-17T12:59:17;15.10;99.90
2523;DHT22;1272;53.332;9.860;2023-05-17T13:01:55;15.10;99.90
2523;DHT22;1272;53.332;9.860;2023-05-17T13:04:32;15.20;99.90
2523;DHT22;1272;53.332;9.860;2023-05-17T13:07:02;15.30;99.90
2523;DHT22;1272;53.332;9.860;2023-05-17T13:09:29;15.20;99.90
2523;DHT22;1272;53.332;9.860;2023-05-17T13:11:56;15.10;99.90
2523;DHT22;1272;53.332;9.860;2023-05-17T13:14:36;15.00;99.90
2523;DHT22;1272;53.332;9.860;2023-05-17T13:17:03;15.00;99.90
2523;DHT22;1272;53.332;9.860;2023-05-17T13:19:29;14.90;99.90
2523;DHT22;1272;53.332;9.860;2023-05-17T13:21:55;15.00;99.90
2523;DHT22;1272;53.332;9.860;2023-05-17T13:24:21;14.90;99.90
2523;DHT22;1272;53.332;9.860;2023-05-17T13:26:47;14.90;99.90
2523;DHT22;1272;53.332;9.860;2023-05-17T13:29:13;14.90;99.90
2523;DHT22;1272;53.332;9.860;2023-05-17T13:31:38;14.80;99.90
2523;DHT22;1272;53.332;9.860;2023-05-17T13:34:06;14.80;99.90
2523;DHT22;1272;53.332;9.860;2023-05-17T13:36:31;15.20;99.90
2523;DHT22;1272;53.332;9.860;2023-05-17T13:38:57;15.50;99.90
2523;DHT22;1272;53.332;9.860;2023-05-17T13:41:24;15.90;99.90
2523;DHT22;1272;53.332;9.860;2023-05-17T13:43:49;15.90;99.90
2523;DHT22;1272;53.332;9.860;2023-05-17T13:46:15;15.90;99.90
2523;DHT22;1272;53.332;9.860;2023-05-17T13:48:41;15.80;99.90
2523;DHT22;1272;53.332;9.860;2023-05-17T13:51:07;15.70;99.90
2523;DHT22;1272;53.332;9.860;2023-05-17T13:53:32;15.60;99.90
2523;DHT22;1272;53.332;9.860;2023-05-17T13:55:58;15.50;99.90
2523;DHT22;1272;53.332;9.860;2023-05-17T13:58:25;15.40;99.90
2523;DHT22;1272;53.332;9.860;2023-05-17T14:00:51;15.30;99.90
2523;DHT22;1272;53.332;9.860;2023-05-17T14:03:16;15.10;99.90
2523;DHT22;1272;53.332;9.860;2023-05-17T14:05:42;15.00;99.90
2523;DHT22;1272;53.332;9.860;2023-05-17T14:08:08;14.80;99.90
2523;DHT22;1272;53.332;9.860;2023-05-17T14:10:35;14.70;99.90
2523;DHT22;1272;53.332;9.860;2023-05-17T14:13:00;14.60;99.90
2523;DHT22;1272;53.332;9.860;2023-05-17T14:15:27;14.50;99.90
2523;DHT22;1272;53.332;9.860;2023-05-17T14:17:52;14.50;99.90
2523;DHT22;1272;53.332;9.860;2023-05-17T14:20:18;14.30;99.90
2523;DHT22;1272;53.332;9.860;2023-05-17T14:22:44;14.20;99.90
2523;DHT22;1272;53.332;9.860;2023-05-17T14:25:10;14.40;99.90
2523;DHT22;1272;53.332;9.860;2023-05-17T14:27:36;14.60;99.90
2523;DHT22;1272;53.332;9.860;2023-05-17T14:30:03;14.70;99.90
2523;DHT22;1272;53.332;9.860;2023-05-17T14:32:28;14.70;99.90
2523;DHT22;1272;53.332;9.860;2023-05-17T14:34:54;14.70;99.90
2523;DHT22;1272;53.332;9.860;2023-05-17T14:37:20;14.80;99.90
2523;DHT22;1272;53.332;9.860;2023-05-17T14:39:47;14.90;99.90
2523;DHT22;1272;53.332;9.860;2023-05-17T14:42:13;14.90;99.90
2523;DHT22;1272;53.332;9.860;2023-05-17T14:44:38;15.00;99.90
2523;DHT22;1272;53.332;9.860;2023-05-17T14:47:07;15.00;99.90
2523;DHT22;1272;53.332;9.860;2023-05-17T14:49:33;15.00;99.90
2523;DHT22;1272;53.332;9.860;2023-05-17T14:51:58;14.90;99.90
2523;DHT22;1272;53.332;9.860;2023-05-17T14:54:24;14.90;99.90
2523;DHT22;1272;53.332;9.860;2023-05-17T14:56:54;14.80;99.90
2523;DHT22;1272;53.332;9.860;2023-05-17T14:59:20;14.70;99.90
2523;DHT22;1272;53.332;9.860;2023-05-17T15:01:46;14.70;99.90
2523;DHT22;1272;53.332;9.860;2023-05-17T15:04:11;14.60;99.90
2523;DHT22;1272;53.332;9.860;2023-05-17T15:06:37;14.60;99.90
2523;DHT22;1272;53.332;9.860;2023-05-17T15:09:03;14.60;99.90
2523;DHT22;1272;53.332;9.860;2023-05-17T15:11:29;14.70;99.90
2523;DHT22;1272;53.332;9.860;2023-05-17T15:13:55;14.70;99.90
2523;DHT22;1272;53.332;9.860;2023-05-17T15:16:21;14.70;99.90
2523;DHT22;1272;53.332;9.860;2023-05-17T15:18:47;14.60;99.90
2523;DHT22;1272;53.332;9.860;2023-05-17T15:21:13;14.40;99.90
2523;DHT22;1272;53.332;9.860;2023-05-17T15:23:39;14.30;99.90
2523;DHT22;1272;53.332;9.860;2023-05-17T15:26:05;14.20;99.90
2523;DHT22;1272;53.332;9.860;2023-05-17T15:28:30;14.10;99.90
2523;DHT22;1272;53.332;9.860;2023-05-17T15:31:00;13.80;99.90
2523;DHT22;1272;53.332;9.860;2023-05-17T15:33:26;13.80;99.90
2523;DHT22;1272;53.332;9.860;2023-05-17T15:35:52;13.70;99.90
2523;DHT22;1272;53.332;9.860;2023-05-17T15:38:18;13.70;99.90
2523;DHT22;1272;53.332;9.860;2023-05-17T15:40:44;13.70;99.90
2523;DHT22;1272;53.332;9.860;2023-05-17T15:43:12;13.90;99.90
2523;DHT22;1272;53.332;9.860;2023-05-17T15:45:37;14.10;99.90
2523;DHT22;1272;53.332;9.860;2023-05-17T15:48:03;14.30;99.90
2523;DHT22;1272;53.332;9.860;2023-05-17T15:50:31;14.40;99.90
2523;DHT22;1272;53.332;9.860;2023-05-17T15:52:56;14.60;99.90
2523;DHT22;1272;53.332;9.860;2023-05-17T15:55:22;14.50;99.90
2523;DHT22;1272;53.332;9.860;2023-05-17T15:57:47;14.50;99.90
2523;DHT22;1272;53.332;9.860;2023-05-17T16:00:13;14.50;99.90
2523;DHT22;1272;53.332;9.860;2023-05-17T16:02:39;14.50;99.90
2523;DHT22;1272;53.332;9.860;2023-05-17T16:05:06;14.30;99.90
2523;DHT22;1272;53.332;9.860;2023-05-17T16:07:32;14.20;99.90
2523;DHT22;1272;53.332;9.860;2023-05-17T16:09:58;14.00;99.90
2523;DHT22;1272;53.332;9.860;2023-05-17T16:12:23;14.10;99.90
2523;DHT22;1272;53.332;9.860;2023-05-17T16:14:49;14.20;99.90
2523;DHT22;1272;53.332;9.860;2023-05-17T16:17:15;14.60;99.90
2523;DHT22;1272;53.332;9.860;2023-05-17T16:19:40;14.80;99.90
2523;DHT22;1272;53.332;9.860;2023-05-17T16:22:06;15.00;99.90
2523;DHT22;1272;53.332;9.860;2023-05-17T16:24:32;14.90;99.90
2523;DHT22;1272;53.332;9.860;2023-05-17T16:26:58;14.70;99.90
2523;DHT22;1272;53.332;9.860;2023-05-17T16:29:23;14.50;99.90
2523;DHT22;1272;53.332;9.860;2023-05-17T16:31:49;14.40;99.90
2523;DHT22;1272;53.332;9.860;2023-05-17T16:34:15;14.40;99.90